Time;durP1;ratioP1;P1;durP2;ratioP2;P2;SDS_P1;SDS_P2;PMS_P1;PMS_P2;Temp;Humidity;BMP_temperature;BMP_pressure;BME280_temperature;BME280_humidity;BME280_pressure;Samples;Min_cycle;Max_cycle;Signal;HPM_P1;HPM_P2
2021/12/23 00:01:47;;;;;;;13.10;6.95;;;2.30;95.10;;;;;;5074972;28;20031;-76
2021/12/23 00:04:13;;;;;;;14.00;6.68;;;2.30;95.10;;;;;;5075672;28;20040;-77
2021/12/23 00:06:41;;;;;;;12.85;5.97;;;2.30;95.10;;;;;;5077144;28;20441;-77
2021/12/23 00:09:07;;;;;;;11.52;6.10;;;2.30;95.10;;;;;;5079106;28;20020;-77
2021/12/23 00:11:33;;;;;;;13.45;6.72;;;2.30;95.10;;;;;;5097450;28;20454;-76
2021/12/23 00:14:07;;;;;;;12.57;7.50;;;2.30;95.10;;;;;;5097346;28;20038;-76
2021/12/23 00:16:55;;;;;;;16.65;6.90;;;2.30;95.10;;;;;;5097418;28;20077;-77
2021/12/23 00:19:34;;;;;;;15.45;7.60;;;2.30;95.10;;;;;;5079811;28;20024;-77
2021/12/23 00:24:45;;;;;;;15.00;6.75;;;2.30;95.00;;;;;;5097878;28;20046;-75
2021/12/23 00:27:11;;;;;;;16.98;8.63;;;2.30;95.00;;;;;;5098157;28;20094;-76
2021/12/23 00:29:39;;;;;;;17.27;7.50;;;2.30;95.00;;;;;;5097272;28;20020;-75
2021/12/23 00:32:07;;;;;;;17.15;7.57;;;2.30;95.00;;;;;;5079143;28;20027;-75
2021/12/23 00:34:33;;;;;;;14.43;6.70;;;2.30;95.20;;;;;;5078684;28;20113;-75
2021/12/23 00:37:00;;;;;;;17.45;7.50;;;2.30;94.90;;;;;;5096658;28;20345;-75
2021/12/23 00:39:27;;;;;;;15.85;7.28;;;2.40;95.00;;;;;;5096835;28;20452;-75
2021/12/23 00:41:54;;;;;;;17.42;8.05;;;2.40;95.00;;;;;;5096822;28;20091;-75
2021/12/23 00:44:20;;;;;;;16.15;7.15;;;2.40;94.90;;;;;;5096769;28;20468;-75
2021/12/23 00:46:46;;;;;;;15.98;8.15;;;2.40;94.90;;;;;;5078717;28;20115;-76
2021/12/23 00:49:12;;;;;;;16.65;8.38;;;2.40;94.90;;;;;;5097009;28;20368;-77
2021/12/23 00:51:38;;;;;;;16.42;8.15;;;2.30;94.90;;;;;;5078347;28;20024;-77
2021/12/23 00:54:06;;;;;;;14.30;8.10;;;2.30;94.90;;;;;;5096383;28;20024;-77
2021/12/23 00:56:37;;;;;;;15.23;7.25;;;2.40;94.90;;;;;;5096577;28;20080;-77
2021/12/23 00:59:08;;;;;;;15.43;7.38;;;2.30;94.80;;;;;;5096541;28;20478;-77
2021/12/23 01:01:33;;;;;;;14.25;7.30;;;2.30;94.80;;;;;;5096246;28;20055;-77
2021/12/23 01:03:59;;;;;;;12.63;6.88;;;2.30;94.80;;;;;;5096005;28;20472;-75
2021/12/23 01:06:25;;;;;;;14.85;7.88;;;2.30;94.80;;;;;;5078895;28;20188;-75
2021/12/23 01:08:51;;;;;;;17.08;8.45;;;2.30;94.80;;;;;;5096272;28;20062;-76
2021/12/23 01:11:18;;;;;;;16.20;7.93;;;2.30;94.70;;;;;;5095968;28;20152;-76
2021/12/23 01:14:00;;;;;;;14.80;7.07;;;2.30;94.70;;;;;;5077907;28;20110;-76
2021/12/23 01:16:48;;;;;;;15.15;7.22;;;2.30;94.70;;;;;;5096519;28;20034;-76
2021/12/23 01:19:13;;;;;;;17.27;7.47;;;2.30;94.80;;;;;;5095858;28;20125;-76
2021/12/23 01:21:38;;;;;;;13.63;6.25;;;2.30;94.70;;;;;;5095909;28;20048;-76
2021/12/23 01:24:05;;;;;;;15.00;8.15;;;2.30;94.70;;;;;;5095850;28;20028;-76
2021/12/23 01:26:30;;;;;;;14.13;7.15;;;2.30;94.70;;;;;;5078464;28;20027;-76
2021/12/23 01:28:58;;;;;;;14.48;8.18;;;2.30;94.70;;;;;;5095537;28;20024;-76
2021/12/23 01:31:26;;;;;;;14.77;7.55;;;2.30;94.70;;;;;;5095773;28;20039;-76
2021/12/23 01:33:52;;;;;;;13.52;6.90;;;2.30;94.70;;;;;;5095958;28;20452;-76
2021/12/23 01:36:18;;;;;;;16.13;8.40;;;2.40;94.70;;;;;;5095964;28;20119;-76
2021/12/23 01:38:44;;;;;;;16.00;7.55;;;2.30;94.70;;;;;;5095589;28;20020;-75
2021/12/23 01:41:10;;;;;;;19.48;8.73;;;2.30;94.70;;;;;;5095484;28;20518;-75
2021/12/23 01:43:36;;;;;;;19.52;7.80;;;2.30;94.70;;;;;;5095370;28;20020;-76
2021/12/23 01:46:02;;;;;;;18.10;9.13;;;2.40;94.70;;;;;;5095396;28;20115;-76
2021/12/23 01:48:28;;;;;;;14.27;8.88;;;2.40;94.60;;;;;;5077211;28;20024;-76
2021/12/23 01:50:53;;;;;;;16.95;9.75;;;2.30;94.60;;;;;;5095436;28;20039;-76
2021/12/23 01:53:19;;;;;;;18.75;8.43;;;2.30;94.60;;;;;;5095762;28;20031;-76
2021/12/23 01:55:46;;;;;;;13.80;7.63;;;2.30;94.50;;;;;;5077350;28;20038;-76
2021/12/23 01:58:13;;;;;;;18.60;9.02;;;2.20;94.50;;;;;;5096530;28;20020;-75
2021/12/23 02:00:42;;;;;;;15.95;8.27;;;2.20;94.60;;;;;;5079672;28;20401;-75
2021/12/23 02:03:07;;;;;;;17.65;8.23;;;2.20;94.50;;;;;;5098847;28;20066;-75
2021/12/23 02:05:33;;;;;;;17.63;8.45;;;2.20;94.50;;;;;;5100371;28;20027;-76
2021/12/23 02:08:00;;;;;;;16.05;7.97;;;2.20;94.50;;;;;;5077731;28;20020;-75
2021/12/23 02:10:27;;;;;;;15.02;8.25;;;2.20;94.50;;;;;;5076888;28;20021;-75
2021/12/23 02:12:53;;;;;;;14.13;7.47;;;2.30;94.50;;;;;;5094953;28;20186;-75
2021/12/23 02:15:19;;;;;;;16.08;7.70;;;2.30;94.50;;;;;;5094926;28;20066;-75
2021/12/23 02:17:47;;;;;;;18.75;9.27;;;2.30;94.50;;;;;;5095142;28;20051;-75
2021/12/23 02:20:16;;;;;;;18.05;8.45;;;2.30;94.40;;;;;;5078922;28;20036;-75
2021/12/23 02:22:43;;;;;;;15.75;8.32;;;2.30;94.40;;;;;;5095112;28;20145;-76
2021/12/23 02:25:10;;;;;;;13.45;7.03;;;2.20;94.40;;;;;;5095655;28;20024;-76
2021/12/23 02:27:37;;;;;;;18.17;9.32;;;2.20;94.40;;;;;;5076662;28;20012;-75
2021/12/23 02:30:07;;;;;;;15.75;8.07;;;2.20;94.40;;;;;;5093283;28;20035;-75
2021/12/23 02:32:35;;;;;;;16.03;8.73;;;2.20;94.50;;;;;;5095061;28;20403;-75
2021/12/23 02:35:01;;;;;;;14.73;7.57;;;2.10;94.50;;;;;;5094436;28;20093;-75
2021/12/23 02:37:27;;;;;;;17.63;8.68;;;2.10;94.50;;;;;;5095035;28;20108;-75
2021/12/23 02:39:52;;;;;;;15.63;7.80;;;2.00;94.50;;;;;;5094791;28;20052;-75
2021/12/23 02:42:18;;;;;;;16.23;8.70;;;2.00;94.60;;;;;;5076474;28;20452;-75
2021/12/23 02:44:44;;;;;;;19.38;8.90;;;2.00;94.60;;;;;;5094358;28;20483;-75
2021/12/23 02:47:10;;;;;;;17.05;8.98;;;2.00;94.70;;;;;;5094265;28;20107;-75
2021/12/23 02:49:35;;;;;;;14.55;8.45;;;1.90;94.70;;;;;;5076332;28;20020;-75
2021/12/23 02:52:01;;;;;;;18.60;8.73;;;1.90;94.70;;;;;;5094318;28;20091;-75
2021/12/23 02:54:27;;;;;;;14.23;7.20;;;1.90;94.70;;;;;;5097232;28;20028;-75
2021/12/23 02:56:53;;;;;;;15.75;7.78;;;1.80;94.80;;;;;;5079216;28;20114;-75
2021/12/23 02:59:19;;;;;;;16.85;8.00;;;1.80;94.80;;;;;;5094175;28;20103;-75
2021/12/23 03:01:44;;;;;;;14.73;7.95;;;1.80;94.80;;;;;;5094470;28;20020;-76
2021/12/23 03:04:10;;;;;;;15.80;8.02;;;1.80;94.80;;;;;;5076069;28;20035;-75
2021/12/23 03:06:36;;;;;;;14.88;7.38;;;1.80;94.80;;;;;;5075796;28;20357;-76
2021/12/23 03:09:04;;;;;;;16.23;7.15;;;1.80;94.80;;;;;;5075648;28;20020;-75
2021/12/23 03:11:31;;;;;;;12.68;6.97;;;1.90;94.80;;;;;;5093792;28;20020;-76
2021/12/23 03:13:57;;;;;;;13.38;8.27;;;1.90;94.70;;;;;;5075537;28;20057;-76
2021/12/23 03:16:28;;;;;;;16.35;8.85;;;2.00;94.70;;;;;;5075725;28;20469;-76
2021/12/23 03:18:55;;;;;;;15.07;7.68;;;2.00;94.60;;;;;;5093755;28;20176;-76
2021/12/23 03:21:21;;;;;;;17.77;7.65;;;2.00;94.60;;;;;;5075104;28;20044;-76
2021/12/23 03:23:47;;;;;;;13.60;7.60;;;2.00;94.50;;;;;;5093658;28;20027;-77
2021/12/23 03:26:13;;;;;;;15.20;8.40;;;2.00;94.50;;;;;;5093580;28;20055;-75
2021/12/23 03:28:39;;;;;;;17.95;7.90;;;2.00;94.50;;;;;;5075554;28;20103;-76
2021/12/23 03:31:05;;;;;;;16.10;8.27;;;2.00;94.60;;;;;;5093418;28;20412;-75
2021/12/23 03:33:31;;;;;;;15.48;8.52;;;2.00;94.60;;;;;;5093630;28;20031;-76
2021/12/23 03:35:58;;;;;;;17.52;8.45;;;1.90;94.60;;;;;;5093704;28;20160;-76
2021/12/23 03:38:25;;;;;;;16.27;8.20;;;1.90;94.70;;;;;;5075122;28;20460;-76
2021/12/23 03:40:50;;;;;;;14.93;7.75;;;1.80;94.70;;;;;;5093119;28;20024;-76
2021/12/23 03:43:17;;;;;;;17.98;8.40;;;1.80;94.70;;;;;;5093361;28;20020;-76
2021/12/23 03:45:44;;;;;;;18.30;8.50;;;1.80;94.70;;;;;;5093434;28;20033;-76
2021/12/23 03:48:12;;;;;;;15.32;7.32;;;1.70;94.80;;;;;;5093206;28;20028;-75
2021/12/23 03:50:37;;;;;;;17.30;8.95;;;1.70;95.00;;;;;;5075045;28;20048;-76
2021/12/23 03:53:03;;;;;;;16.73;9.25;;;1.70;94.80;;;;;;5075102;28;20125;-75
2021/12/23 03:55:29;;;;;;;17.33;8.05;;;1.60;94.90;;;;;;5074970;28;20368;-76
2021/12/23 03:57:55;;;;;;;22.67;10.02;;;1.60;94.90;;;;;;5075058;28;20388;-75
2021/12/23 04:00:22;;;;;;;17.48;8.13;;;1.60;94.90;;;;;;5093112;28;20024;-75
2021/12/23 04:02:49;;;;;;;16.05;7.80;;;1.60;94.90;;;;;;5093149;28;20052;-75
2021/12/23 04:05:16;;;;;;;16.25;8.30;;;1.60;94.80;;;;;;5093042;28;20061;-75
2021/12/23 04:07:42;;;;;;;14.77;8.32;;;1.70;94.80;;;;;;5092806;28;20030;-76
2021/12/23 04:10:10;;;;;;;18.85;9.73;;;1.70;94.70;;;;;;5092957;28;20099;-75
2021/12/23 04:12:36;;;;;;;16.25;7.80;;;1.80;94.70;;;;;;5075089;28;20016;-76
2021/12/23 04:15:03;;;;;;;17.30;8.48;;;1.80;94.60;;;;;;5074938;28;20114;-76
2021/12/23 04:17:28;;;;;;;17.95;9.07;;;1.80;94.60;;;;;;5093842;28;20514;-76
2021/12/23 04:20:02;;;;;;;18.70;8.52;;;1.80;94.50;;;;;;5094006;28;20024;-76
2021/12/23 04:22:28;;;;;;;16.13;7.82;;;1.90;94.50;;;;;;5093444;28;20119;-75
2021/12/23 04:24:53;;;;;;;14.73;8.23;;;1.90;94.40;;;;;;5092890;28;20064;-76
2021/12/23 04:27:19;;;;;;;18.17;8.60;;;1.90;94.40;;;;;;5074738;28;20055;-76
2021/12/23 04:29:45;;;;;;;19.25;9.05;;;1.90;94.40;;;;;;5092909;28;20028;-75
2021/12/23 04:32:10;;;;;;;16.42;8.52;;;2.00;94.40;;;;;;5092523;28;20028;-76
2021/12/23 04:34:36;;;;;;;18.02;9.35;;;2.00;94.40;;;;;;5093162;28;20448;-76
2021/12/23 04:37:02;;;;;;;17.67;9.40;;;2.00;94.30;;;;;;5092470;28;20024;-76
2021/12/23 04:39:27;;;;;;;20.33;8.23;;;2.00;94.30;;;;;;5092651;28;20035;-75
2021/12/23 04:41:53;;;;;;;19.33;9.07;;;2.00;94.20;;;;;;5092793;28;20109;-76
2021/12/23 04:44:19;;;;;;;22.58;10.15;;;2.00;94.20;;;;;;5074531;28;20024;-76
2021/12/23 04:46:44;;;;;;;18.00;9.38;;;2.10;94.20;;;;;;5092819;28;20097;-76
2021/12/23 04:49:10;;;;;;;18.60;9.23;;;2.10;94.20;;;;;;5074447;28;20430;-75
2021/12/23 04:51:35;;;;;;;16.73;8.88;;;2.10;94.20;;;;;;5093465;28;20024;-75
2021/12/23 04:54:01;;;;;;;25.70;11.45;;;2.10;94.10;;;;;;5095578;28;20436;-75
2021/12/23 04:56:28;;;;;;;20.27;10.07;;;2.00;93.90;;;;;;5096495;28;20345;-76
2021/12/23 04:58:53;;;;;;;22.30;10.68;;;2.00;93.90;;;;;;5096954;28;20182;-76
2021/12/23 05:01:21;;;;;;;20.25;10.15;;;2.00;93.90;;;;;;5096356;28;20103;-76
2021/12/23 05:03:48;;;;;;;22.30;10.88;;;1.90;93.90;;;;;;5078198;28;20440;-76
2021/12/23 05:06:17;;;;;;;18.73;9.30;;;1.90;93.90;;;;;;5096246;28;20024;-75
2021/12/23 05:08:43;;;;;;;22.48;9.70;;;1.90;93.90;;;;;;5096786;28;20013;-76
2021/12/23 05:11:09;;;;;;;19.42;9.27;;;1.90;93.90;;;;;;5096146;28;20016;-75
2021/12/23 05:13:35;;;;;;;19.70;10.05;;;2.00;93.90;;;;;;5095857;28;20537;-75
2021/12/23 05:16:01;;;;;;;17.23;8.48;;;1.90;93.90;;;;;;5095795;28;20037;-76
2021/12/23 05:18:26;;;;;;;19.52;8.82;;;1.90;94.00;;;;;;5096064;28;20503;-75
2021/12/23 05:20:52;;;;;;;22.40;10.15;;;1.90;93.90;;;;;;5095785;28;20051;-75
2021/12/23 05:23:18;;;;;;;18.15;9.90;;;1.90;93.80;;;;;;5095581;28;20024;-75
2021/12/23 05:25:44;;;;;;;22.95;10.93;;;1.90;93.80;;;;;;5077743;28;20536;-75
2021/12/23 05:28:10;;;;;;;24.38;11.68;;;1.90;93.70;;;;;;5077894;28;20456;-75
2021/12/23 05:30:35;;;;;;;23.73;12.23;;;1.90;93.60;;;;;;5096129;28;20472;-76
2021/12/23 05:33:01;;;;;;;21.48;10.85;;;1.90;93.60;;;;;;5095987;28;20026;-75
2021/12/23 05:35:27;;;;;;;26.17;12.38;;;1.90;93.60;;;;;;5096179;28;20371;-75
2021/12/23 05:37:53;;;;;;;26.70;11.38;;;1.80;93.40;;;;;;5095771;28;20027;-76
2021/12/23 05:40:24;;;;;;;21.83;11.55;;;1.80;93.40;;;;;;5077356;28;20027;-76
2021/12/23 05:42:50;;;;;;;25.47;12.13;;;1.80;93.40;;;;;;5095676;28;20062;-76
2021/12/23 05:45:16;;;;;;;25.58;12.85;;;1.90;93.40;;;;;;5095514;28;20055;-76
2021/12/23 05:47:43;;;;;;;25.23;13.05;;;1.80;93.30;;;;;;5095585;28;20137;-76
2021/12/23 05:50:10;;;;;;;26.77;13.52;;;1.80;93.40;;;;;;5095454;28;20024;-76
2021/12/23 05:52:36;;;;;;;22.83;10.77;;;1.80;93.30;;;;;;5095092;28;20021;-77
2021/12/23 05:55:06;;;;;;;26.52;12.75;;;1.80;93.30;;;;;;5095517;28;20020;-77
2021/12/23 05:57:32;;;;;;;21.08;10.80;;;1.80;93.30;;;;;;5077201;28;20090;-76
2021/12/23 05:59:58;;;;;;;29.90;12.63;;;1.80;93.40;;;;;;5095759;28;20037;-77
2021/12/23 06:02:24;;;;;;;24.83;11.85;;;1.80;93.30;;;;;;5078312;28;20020;-76
2021/12/23 06:04:49;;;;;;;23.00;11.43;;;1.80;93.30;;;;;;5078907;28;20055;-76
2021/12/23 06:07:15;;;;;;;27.38;12.00;;;1.90;93.30;;;;;;5096144;28;20077;-77
2021/12/23 06:09:41;;;;;;;21.25;11.95;;;1.90;93.20;;;;;;5095932;28;20495;-76
2021/12/23 06:12:07;;;;;;;27.77;12.60;;;1.90;93.10;;;;;;5095923;28;20372;-78
2021/12/23 06:14:33;;;;;;;24.42;12.40;;;1.80;93.10;;;;;;5095565;28;20089;-76
2021/12/23 06:17:01;;;;;;;23.15;10.95;;;1.80;93.20;;;;;;5096025;28;20376;-77
2021/12/23 06:19:26;;;;;;;27.27;11.45;;;1.80;93.30;;;;;;5095243;28;20057;-76
2021/12/23 06:21:52;;;;;;;26.67;11.73;;;1.80;93.30;;;;;;5094544;28;20036;-76
2021/12/23 06:24:18;;;;;;;24.45;10.63;;;1.80;93.30;;;;;;5076637;28;20123;-76
2021/12/23 06:26:44;;;;;;;27.52;12.82;;;1.80;93.30;;;;;;5076495;28;20098;-76
2021/12/23 06:29:09;;;;;;;29.60;12.52;;;1.70;93.30;;;;;;5095174;28;20020;-76
2021/12/23 06:31:35;;;;;;;28.48;12.63;;;1.80;93.30;;;;;;5094250;28;20073;-75
2021/12/23 06:34:01;;;;;;;26.52;10.98;;;1.80;93.30;;;;;;5076288;28;20476;-76
2021/12/23 06:36:26;;;;;;;27.33;13.23;;;1.80;93.30;;;;;;5076874;28;20063;-76
2021/12/23 06:38:52;;;;;;;25.42;12.55;;;1.80;93.20;;;;;;5094436;28;20047;-76
2021/12/23 06:41:18;;;;;;;25.48;11.43;;;1.80;93.20;;;;;;5094749;28;20085;-76
2021/12/23 06:43:45;;;;;;;30.55;13.70;;;1.80;93.20;;;;;;5076250;28;20024;-76
2021/12/23 06:46:11;;;;;;;26.20;12.10;;;1.80;93.10;;;;;;5094016;28;20024;-75
2021/12/23 06:48:36;;;;;;;29.65;12.93;;;1.80;93.10;;;;;;5093858;28;20026;-76
2021/12/23 06:51:03;;;;;;;24.73;12.55;;;1.80;93.00;;;;;;5094532;28;20048;-75
2021/12/23 06:53:29;;;;;;;30.60;13.55;;;1.80;93.00;;;;;;5094110;28;20432;-75
2021/12/23 06:55:55;;;;;;;22.80;11.13;;;1.80;93.00;;;;;;5094639;28;20062;-75
2021/12/23 06:58:23;;;;;;;22.65;10.75;;;1.80;93.00;;;;;;5094538;28;20055;-75
2021/12/23 07:00:50;;;;;;;24.30;11.02;;;1.80;93.10;;;;;;5094157;28;20020;-76
2021/12/23 07:03:15;;;;;;;28.23;11.68;;;1.80;93.10;;;;;;5075452;28;20021;-76
2021/12/23 07:05:42;;;;;;;22.10;11.23;;;1.80;92.90;;;;;;5075674;28;20016;-76
2021/12/23 07:08:11;;;;;;;24.02;12.18;;;1.80;92.90;;;;;;5093958;28;20091;-77
2021/12/23 07:10:38;;;;;;;25.35;12.07;;;1.80;93.00;;;;;;5075570;28;20085;-75
2021/12/23 07:13:04;;;;;;;23.08;10.80;;;1.90;93.00;;;;;;5075574;28;20167;-74
2021/12/23 07:15:32;;;;;;;26.40;10.88;;;1.90;92.90;;;;;;5093152;28;20024;-74
2021/12/23 07:17:59;;;;;;;24.92;11.15;;;2.00;93.00;;;;;;5075516;28;20020;-74
2021/12/23 07:20:26;;;;;;;26.42;11.30;;;2.00;92.90;;;;;;5093686;28;20153;-75
2021/12/23 07:22:52;;;;;;;24.83;10.18;;;2.00;92.90;;;;;;5093736;28;20023;-74
2021/12/23 07:25:18;;;;;;;25.52;12.30;;;2.00;93.00;;;;;;5075591;28;20020;-75
2021/12/23 07:27:44;;;;;;;27.50;11.80;;;2.00;93.00;;;;;;5075708;28;20035;-75
2021/12/23 07:30:13;;;;;;;22.73;9.88;;;1.90;93.00;;;;;;5093433;28;20070;-75
2021/12/23 07:32:39;;;;;;;28.55;12.05;;;1.90;93.10;;;;;;5093439;28;20016;-75
2021/12/23 07:35:06;;;;;;;28.13;11.02;;;2.00;93.10;;;;;;5093166;28;20028;-75
2021/12/23 07:37:32;;;;;;;24.65;11.00;;;2.00;93.10;;;;;;5093319;28;20028;-74
2021/12/23 07:39:58;;;;;;;27.77;11.77;;;2.10;93.10;;;;;;5093406;28;20123;-76
2021/12/23 07:42:25;;;;;;;20.67;10.77;;;2.20;93.10;;;;;;5075080;28;20016;-75
2021/12/23 07:44:52;;;;;;;23.02;9.50;;;2.20;93.10;;;;;;5093429;28;20028;-75
2021/12/23 07:47:18;;;;;;;23.65;10.93;;;2.20;93.00;;;;;;5075402;28;20062;-75
2021/12/23 07:49:44;;;;;;;25.95;11.90;;;2.20;93.00;;;;;;5093500;28;20206;-75
2021/12/23 07:52:11;;;;;;;23.73;10.63;;;2.20;93.00;;;;;;5093199;28;20028;-75
2021/12/23 07:54:38;;;;;;;26.88;11.90;;;2.20;93.10;;;;;;5075662;28;20024;-75
2021/12/23 07:57:04;;;;;;;27.42;12.00;;;2.20;93.00;;;;;;5093799;28;20025;-76
2021/12/23 07:59:30;;;;;;;22.50;10.60;;;2.30;93.00;;;;;;5093802;28;20017;-75
2021/12/23 08:01:57;;;;;;;27.45;12.40;;;2.20;92.90;;;;;;5093313;28;20103;-74
2021/12/23 08:04:23;;;;;;;28.55;11.98;;;2.20;92.80;;;;;;5093433;28;20032;-74
2021/12/23 08:06:55;;;;;;;27.50;11.35;;;2.20;92.80;;;;;;5093839;28;20471;-74
2021/12/23 08:09:23;;;;;;;23.50;12.32;;;2.10;92.80;;;;;;5075287;28;20478;-75
2021/12/23 08:11:49;;;;;;;27.55;11.75;;;2.10;92.90;;;;;;5093595;28;20020;-75
2021/12/23 08:14:15;;;;;;;25.63;12.60;;;2.20;92.90;;;;;;5092955;28;20043;-75
2021/12/23 08:16:41;;;;;;;25.05;11.50;;;2.20;92.90;;;;;;5074769;28;20023;-75
2021/12/23 08:19:06;;;;;;;27.30;12.57;;;2.20;92.80;;;;;;5075166;28;20013;-75
2021/12/23 08:21:32;;;;;;;25.55;10.35;;;2.20;92.80;;;;;;5092746;28;20511;-74
2021/12/23 08:23:58;;;;;;;24.67;11.65;;;2.20;92.80;;;;;;5092940;28;20081;-75
2021/12/23 08:26:28;;;;;;;28.00;11.90;;;2.20;92.80;;;;;;5092540;28;20024;-74
2021/12/23 08:28:57;;;;;;;20.55;9.77;;;2.30;92.90;;;;;;5077988;28;20065;-75
2021/12/23 08:31:23;;;;;;;21.33;10.65;;;2.30;92.90;;;;;;5096696;28;20031;-75
2021/12/23 08:33:50;;;;;;;21.83;9.93;;;2.40;92.90;;;;;;5096818;28;20036;-74
2021/12/23 08:36:16;;;;;;;21.77;11.18;;;2.40;92.90;;;;;;5096910;28;20067;-75
2021/12/23 08:38:43;;;;;;;25.02;10.07;;;2.40;92.90;;;;;;5078801;28;20012;-76
2021/12/23 08:41:09;;;;;;;22.58;10.98;;;2.40;92.90;;;;;;5096775;28;20103;-75
2021/12/23 08:43:36;;;;;;;25.35;11.10;;;2.40;92.90;;;;;;5096604;28;20035;-74
2021/12/23 08:46:02;;;;;;;19.55;10.60;;;2.40;92.90;;;;;;5096949;28;20085;-75
2021/12/23 08:48:27;;;;;;;20.77;10.35;;;2.40;92.90;;;;;;5096578;28;20054;-74
2021/12/23 08:50:54;;;;;;;22.48;10.20;;;2.50;92.90;;;;;;5078327;28;20056;-75
2021/12/23 08:53:19;;;;;;;19.88;10.45;;;2.50;92.90;;;;;;5078310;28;20111;-75
2021/12/23 08:55:45;;;;;;;24.23;10.77;;;2.60;92.90;;;;;;5078254;28;20449;-75
2021/12/23 08:58:11;;;;;;;25.85;10.75;;;2.60;92.90;;;;;;5096473;28;20024;-75
2021/12/23 09:00:39;;;;;;;19.40;9.63;;;2.60;92.90;;;;;;5096019;28;20145;-75
2021/12/23 09:03:06;;;;;;;26.58;11.70;;;2.60;92.90;;;;;;5096462;28;20039;-75
2021/12/23 09:05:32;;;;;;;23.20;11.57;;;2.60;92.90;;;;;;5097002;28;20022;-75
2021/12/23 09:07:58;;;;;;;26.45;12.65;;;2.60;92.90;;;;;;5078775;28;20024;-75
2021/12/23 09:10:24;;;;;;;24.85;11.20;;;2.60;92.90;;;;;;5096252;28;20028;-75
2021/12/23 09:12:51;;;;;;;22.00;10.85;;;2.60;92.90;;;;;;5096097;28;20024;-76
2021/12/23 09:15:18;;;;;;;22.67;10.90;;;2.60;92.90;;;;;;5096122;28;20046;-75
2021/12/23 09:17:44;;;;;;;23.20;11.45;;;2.70;92.90;;;;;;5078089;28;20250;-74
2021/12/23 09:20:12;;;;;;;23.85;11.13;;;2.70;92.90;;;;;;5096060;28;20024;-75
2021/12/23 09:22:38;;;;;;;36.20;19.40;;;2.70;92.90;;;;;;5095942;28;20048;-75
2021/12/23 09:25:11;;;;;;;22.20;11.50;;;2.80;92.90;;;;;;5096028;28;20026;-76
2021/12/23 09:27:52;;;;;;;25.45;11.45;;;2.80;92.90;;;;;;5096407;28;20020;-75
2021/12/23 09:33:02;;;;;;;25.13;11.65;;;2.90;92.80;;;;;;5096368;28;20039;-74
2021/12/23 09:35:30;;;;;;;26.27;13.00;;;2.90;92.80;;;;;;5077562;28;20370;-76
2021/12/23 09:37:56;;;;;;;27.98;12.95;;;3.00;92.80;;;;;;5077181;28;20103;-75
2021/12/23 09:40:23;;;;;;;26.85;11.32;;;3.00;92.70;;;;;;5095274;28;20028;-75
2021/12/23 09:42:51;;;;;;;23.00;12.52;;;2.90;92.70;;;;;;5077332;28;20107;-76
2021/12/23 09:45:18;;;;;;;24.50;10.82;;;2.90;92.80;;;;;;5077465;28;20027;-75
2021/12/23 09:47:47;;;;;;;23.60;11.05;;;2.90;92.80;;;;;;5077540;28;20024;-75
2021/12/23 09:50:18;;;;;;;28.40;12.75;;;2.90;92.80;;;;;;5096875;28;20016;-75
2021/12/23 09:52:50;;;;;;;31.27;13.40;;;2.90;92.80;;;;;;5096207;28;20024;-75
2021/12/23 09:55:19;;;;;;;24.50;11.10;;;2.90;92.80;;;;;;5096721;28;20028;-74
2021/12/23 09:57:47;;;;;;;30.20;13.02;;;3.00;92.80;;;;;;5096161;28;20031;-76
2021/12/23 10:00:15;;;;;;;28.85;13.60;;;3.00;92.70;;;;;;5095466;28;20467;-76
2021/12/23 10:02:42;;;;;;;24.35;11.82;;;3.00;92.70;;;;;;5095703;28;20028;-75
2021/12/23 10:05:14;;;;;;;30.02;14.30;;;3.00;92.60;;;;;;5095279;28;20039;-76
2021/12/23 10:07:43;;;;;;;30.55;13.20;;;3.10;92.70;;;;;;5094863;28;20451;-76
2021/12/23 10:10:23;;;;;;;25.45;12.10;;;3.10;92.70;;;;;;5076899;28;20054;-76
2021/12/23 10:32:29;;;;;;;24.27;12.40;;;3.20;92.30;;;;;;5075212;28;20062;-75
2021/12/23 10:38:09;;;;;;;29.70;13.05;;;3.30;92.60;;;;;;5094573;28;20494;-75
2021/12/23 10:40:37;;;;;;;26.73;12.15;;;3.30;92.30;;;;;;5094938;28;20081;-75
2021/12/23 10:43:03;;;;;;;29.02;12.98;;;3.30;92.30;;;;;;5094172;28;20107;-75
2021/12/23 10:45:36;;;;;;;29.20;12.93;;;3.40;92.30;;;;;;5094429;28;20107;-75
2021/12/23 10:48:09;;;;;;;30.38;13.02;;;3.40;92.30;;;;;;5094357;28;20032;-75
2021/12/23 10:50:44;;;;;;;28.35;13.98;;;3.40;92.30;;;;;;5075570;28;20051;-75
2021/12/23 10:57:57;;;;;;;32.80;14.02;;;3.40;92.30;;;;;;5077181;28;20340;-75
2021/12/23 10:59:16;;;;;;;29.40;13.35;;;3.50;92.30;;;;;;5094639;28;20081;-75
2021/12/23 11:02:13;;;;;;;30.23;12.80;;;3.50;92.30;;;;;;5093986;28;20107;-75
2021/12/23 11:04:50;;;;;;;26.45;12.13;;;3.50;92.30;;;;;;5094070;28;20050;-75
2021/12/23 11:07:27;;;;;;;24.23;11.48;;;3.60;92.30;;;;;;5076141;28;20115;-75
2021/12/23 11:37:57;;;;;;;20.27;10.40;;;3.90;92.50;;;;;;5094033;28;20034;-76
2021/12/23 11:43:12;;;;;;;28.67;12.57;;;4.00;92.30;;;;;;5096534;28;20039;-74
2021/12/23 11:45:38;;;;;;;29.00;12.13;;;4.00;92.40;;;;;;5100445;28;20036;-74
2021/12/23 11:48:06;;;;;;;29.98;13.07;;;4.00;92.50;;;;;;5078035;28;20019;-75
2021/12/23 11:50:42;;;;;;;22.88;11.15;;;4.00;92.50;;;;;;5093353;28;20035;-74
2021/12/23 11:53:09;;;;;;;25.88;11.77;;;4.00;92.60;;;;;;5075450;28;20024;-74
2021/12/23 11:55:36;;;;;;;24.23;11.95;;;4.10;92.60;;;;;;5093706;28;20118;-76
2021/12/23 11:58:02;;;;;;;23.00;11.48;;;4.10;92.60;;;;;;5093112;28;20031;-75
2021/12/23 12:00:42;;;;;;;29.65;13.05;;;4.10;92.60;;;;;;5093198;28;20027;-75
2021/12/23 12:03:09;;;;;;;33.83;13.63;;;4.10;92.60;;;;;;5093412;28;20127;-75
2021/12/23 12:05:36;;;;;;;27.35;12.50;;;4.00;92.60;;;;;;5093166;28;20089;-77
2021/12/23 12:08:17;;;;;;;31.75;12.05;;;4.10;92.80;;;;;;5074919;28;20020;-76
2021/12/23 12:10:45;;;;;;;32.00;13.43;;;4.10;92.80;;;;;;5093115;28;20028;-76
2021/12/23 12:13:14;;;;;;;26.05;11.93;;;4.10;92.70;;;;;;5093173;28;20024;-76
2021/12/23 12:15:39;;;;;;;26.95;12.85;;;4.00;93.00;;;;;;5092937;28;20036;-76
2021/12/23 12:18:08;;;;;;;25.83;11.70;;;4.10;92.80;;;;;;5075535;28;20109;-76
2021/12/23 12:20:49;;;;;;;23.80;11.90;;;4.10;92.80;;;;;;5093436;28;20105;-77
2021/12/23 12:23:44;;;;;;;26.98;10.75;;;4.20;92.80;;;;;;5093350;28;20047;-76
2021/12/23 12:26:21;;;;;;;32.75;12.95;;;4.20;92.70;;;;;;5093040;28;20107;-76
2021/12/23 12:28:48;;;;;;;24.52;11.13;;;4.30;92.70;;;;;;5092634;28;20020;-76
2021/12/23 12:31:22;;;;;;;27.80;11.38;;;4.30;92.60;;;;;;5074771;28;20414;-76
2021/12/23 12:33:59;;;;;;;29.17;12.88;;;4.40;92.60;;;;;;5092753;28;20484;-75
2021/12/23 12:36:26;;;;;;;26.00;11.65;;;4.40;92.50;;;;;;5074932;28;20403;-75
2021/12/23 12:38:55;;;;;;;32.58;13.57;;;4.40;92.50;;;;;;5092381;28;20353;-76
2021/12/23 12:41:23;;;;;;;24.55;10.88;;;4.40;92.60;;;;;;5074565;28;20074;-75
2021/12/23 12:44:03;;;;;;;25.10;11.43;;;4.50;92.60;;;;;;5074722;28;20426;-75
2021/12/23 12:46:37;;;;;;;22.67;10.93;;;4.60;92.60;;;;;;5093371;28;20024;-75
2021/12/23 12:49:23;;;;;;;24.10;11.68;;;4.60;92.50;;;;;;5093225;28;20016;-75
2021/12/23 12:51:50;;;;;;;17.02;9.07;;;4.70;92.50;;;;;;5092739;28;20017;-75
2021/12/23 12:54:26;;;;;;;21.08;9.80;;;4.80;92.50;;;;;;5092198;28;20028;-76
2021/12/23 12:56:56;;;;;;;25.17;12.10;;;4.80;92.50;;;;;;5075120;28;20027;-75
2021/12/23 12:59:31;;;;;;;30.23;11.98;;;4.80;92.40;;;;;;5092961;28;20030;-75
2021/12/23 13:01:58;;;;;;;24.40;10.95;;;4.90;92.50;;;;;;5074563;28;20024;-74
2021/12/23 13:04:44;;;;;;;24.35;11.07;;;4.90;92.40;;;;;;5092497;28;20027;-75
2021/12/23 13:07:34;;;;;;;24.45;10.68;;;4.90;92.40;;;;;;5093020;28;20024;-75
2021/12/23 13:10:11;;;;;;;27.80;12.82;;;4.90;92.40;;;;;;5092505;28;20103;-76
2021/12/23 13:13:21;;;;;;;26.02;11.82;;;4.90;92.30;;;;;;5074992;28;20423;-75
2021/12/23 13:15:51;;;;;;;25.77;11.98;;;4.90;92.40;;;;;;4993838;28;20069;-75
2021/12/23 13:18:20;;;;;;;27.42;12.32;;;4.80;92.70;;;;;;5066096;28;20035;-75
2021/12/23 13:21:05;;;;;;;29.90;12.23;;;4.80;92.40;;;;;;5077563;28;20043;-74
2021/12/23 13:23:33;;;;;;;23.15;10.65;;;4.80;92.50;;;;;;5096744;28;20305;-74
2021/12/23 13:26:00;;;;;;;24.63;11.75;;;4.80;92.50;;;;;;5096180;28;20016;-75
2021/12/23 13:28:40;;;;;;;26.60;12.07;;;4.80;92.60;;;;;;5077718;28;20093;-76
2021/12/23 13:31:13;;;;;;;23.67;10.32;;;4.90;92.60;;;;;;5099179;28;20023;-76
2021/12/23 13:33:53;;;;;;;24.70;10.50;;;4.80;92.50;;;;;;5082372;28;20071;-77
2021/12/23 13:36:26;;;;;;;27.85;12.35;;;4.80;92.60;;;;;;5095897;28;20028;-77
2021/12/23 13:38:55;;;;;;;25.30;11.30;;;4.80;92.50;;;;;;5079439;28;20024;-77
2021/12/23 13:41:25;;;;;;;21.27;11.40;;;4.80;92.60;;;;;;5077505;28;20092;-77
2021/12/23 13:43:52;;;;;;;27.23;12.00;;;4.90;92.70;;;;;;5095141;28;20497;-77
2021/12/23 13:46:18;;;;;;;23.50;10.57;;;4.90;92.70;;;;;;5095557;28;20091;-75
2021/12/23 13:48:56;;;;;;;26.08;12.45;;;4.90;92.60;;;;;;5095942;28;20051;-75